logo
Search for airport 
image banner adimage banner adimage banner ad
image banner ad

ED2067 - Waltrop

Located in , Germany

ICAO - , IATA -

Data provided by Airmate  

General information

Coordinates: N51°38'26" E7°25'32"
Elevation is 161 feet MSL.
 
View others Airports in North Rhine-Westphalia

Operational data

Special qualification required
Current time UTC:
Current local time:
Weather at : EDLW - Dortmund ( 19 km )
METAR: EDLW 170020Z AUTO 19008KT 9999 // FEW082/// BKN095/// 14/12 Q1009
TAF: TAF EDLW 161700Z 1618/1718 20010KT 9999 BKN040 PROB40 TEMPO 1618/1619 23015G25KT SHRA BKN030TCU BECMG 1620/1622 17005KT PROB30 TEMPO 1704/1706 21015G25KT SHRA BKN030TCU BECMG 1706/1709 24008KT TEMPO 1710/1718 SHRA BKN030CB PROB30 TEMPO 1712/1716 23015G25KT TSRA
View NOTAMs / SUP AIP / TFR affecting this airport [VIEW]
Communications frequencies: [VIEW]

Runways:

RWY identifierQFULength (ft)Width (ft)SurfaceLDA (ft)
12120°1247164GRASS
30300°1247164GRASS

Airport contact information

Address: Germany

Satellite view of ED2067